createdAt,value
2023-01-29T00:00:51.032Z,-0.74
2023-01-29T00:02:52.522Z,-0.57
2023-01-29T00:04:58.709Z,-0.62
2023-01-29T00:07:00.408Z,-0.62
2023-01-29T00:09:01.852Z,-0.79
2023-01-29T00:11:05.036Z,-0.64
2023-01-29T00:13:06.498Z,-0.61
2023-01-29T00:15:08.269Z,-0.65
2023-01-29T00:17:09.803Z,-0.53
2023-01-29T00:19:11.437Z,-0.72
2023-01-29T00:21:15.760Z,-0.58
2023-01-29T00:23:17.743Z,-0.51
2023-01-29T00:25:19.255Z,-0.58
2023-01-29T00:27:20.719Z,-0.71
2023-01-29T00:29:22.316Z,-0.73
2023-01-29T00:31:25.838Z,-0.62
2023-01-29T00:33:28.810Z,-0.64
2023-01-29T00:35:30.916Z,-0.72
2023-01-29T00:37:32.428Z,-0.78
2023-01-29T00:39:47.012Z,-0.73
2023-01-29T00:41:49.484Z,-0.87
2023-01-29T00:43:51.152Z,-1.11
2023-01-29T00:45:52.565Z,-0.88
2023-01-29T00:47:54.001Z,-0.81
2023-01-29T00:49:55.782Z,-0.72
2023-01-29T00:51:57.267Z,-0.61
2023-01-29T00:53:58.985Z,-0.66
2023-01-29T00:56:00.580Z,-0.59
2023-01-29T00:58:02.029Z,-0.51
2023-01-29T01:00:06.414Z,-0.66
2023-01-29T01:02:08.757Z,-0.72
2023-01-29T01:04:11.913Z,-0.72
2023-01-29T01:06:13.395Z,-0.80
2023-01-29T01:08:14.920Z,-0.86
2023-01-29T01:10:23.472Z,-0.88
2023-01-29T01:12:25.029Z,-0.74
2023-01-29T01:14:26.892Z,-0.86
2023-01-29T01:16:28.406Z,-0.95
2023-01-29T01:18:31.769Z,-0.98
2023-01-29T01:20:35.481Z,-0.90
2023-01-29T01:22:37.036Z,-1.02
2023-01-29T01:24:38.589Z,-0.86
2023-01-29T01:26:40.243Z,-0.95
2023-01-29T01:28:41.743Z,-1.16
2023-01-29T01:30:43.273Z,-1.04
2023-01-29T01:32:44.786Z,-1.11
2023-01-29T01:34:46.229Z,-1.09
2023-01-29T01:36:48.327Z,-1.04
2023-01-29T01:38:49.991Z,-1.16
2023-01-29T01:40:51.426Z,-1.13
2023-01-29T01:42:55.115Z,-1.14
2023-01-29T01:45:02.502Z,-1.04
2023-01-29T01:47:03.991Z,-1.04
2023-01-29T01:49:19.021Z,-1.04
2023-01-29T01:51:24.140Z,-1.14
2023-01-29T01:53:36.773Z,-1.12
2023-01-29T01:55:45.552Z,-1.26
2023-01-29T01:57:53.790Z,-1.34
2023-01-29T02:00:02.271Z,-1.03
2023-01-29T02:02:05.013Z,-1.09
2023-01-29T02:04:15.177Z,-1.23
2023-01-29T02:06:17.172Z,-1.34
2023-01-29T02:08:45.326Z,-1.01
2023-01-29T02:10:48.869Z,-1.01
2023-01-29T02:12:51.221Z,-0.92
2023-01-29T02:14:52.822Z,-1.09
2023-01-29T02:16:54.722Z,-1.06
2023-01-29T02:18:56.500Z,-1.21
2023-01-29T02:21:16.962Z,-1.32
2023-01-29T02:23:21.359Z,-1.37
2023-01-29T02:25:44.775Z,-1.37
2023-01-29T02:28:15.298Z,-1.43
2023-01-29T02:30:49.475Z,-1.50
2023-01-29T02:33:29.622Z,-1.56
2023-01-29T02:35:50.514Z,-1.57
2023-01-29T02:37:57.910Z,-1.58
2023-01-29T02:40:12.031Z,-1.46
2023-01-29T02:42:25.171Z,-1.71
2023-01-29T02:44:38.842Z,-1.65
2023-01-29T02:46:56.550Z,-2.04
2023-01-29T02:49:07.225Z,-1.72
2023-01-29T02:51:29.153Z,-1.98
2023-01-29T02:53:42.764Z,-1.84
2023-01-29T02:55:59.309Z,-1.88
2023-01-29T02:58:09.842Z,-1.91
2023-01-29T03:00:18.588Z,-1.92
2023-01-29T03:02:32.616Z,-1.85
2023-01-29T03:04:39.350Z,-1.84
2023-01-29T03:06:50.541Z,-1.86
2023-01-29T03:09:11.688Z,-1.59
2023-01-29T03:11:14.823Z,-1.57
2023-01-29T03:13:35.035Z,-1.45
2023-01-29T03:15:46.388Z,-1.51
2023-01-29T03:18:14.022Z,-1.52
2023-01-29T03:20:18.966Z,-1.41
2023-01-29T03:22:21.591Z,-1.41
2023-01-29T03:24:44.864Z,-1.36
2023-01-29T03:26:46.363Z,-1.38
2023-01-29T03:28:49.346Z,-1.42
2023-01-29T03:30:55.090Z,-1.24
2023-01-29T03:32:59.029Z,-1.39
2023-01-29T03:35:05.209Z,-1.38
2023-01-29T03:37:45.349Z,-1.35
2023-01-29T03:39:46.961Z,-1.55
2023-01-29T03:41:56.608Z,-1.44
2023-01-29T03:44:03.841Z,-1.45
2023-01-29T03:46:08.513Z,-1.52
2023-01-29T03:48:33.203Z,-1.39
2023-01-29T03:50:38.731Z,-1.64
2023-01-29T03:52:59.792Z,-1.51
2023-01-29T03:55:14.638Z,-1.51
2023-01-29T03:57:42.403Z,-1.51
2023-01-29T04:00:08.788Z,-1.52
2023-01-29T04:02:19.053Z,-1.57
2023-01-29T04:04:31.491Z,-1.63
2023-01-29T04:06:37.239Z,-1.69
2023-01-29T04:08:51.213Z,-1.60
2023-01-29T04:10:55.254Z,-1.66
2023-01-29T04:13:04.527Z,-2.04
2023-01-29T04:15:10.112Z,-1.71
2023-01-29T04:17:17.777Z,-1.66
2023-01-29T04:19:19.348Z,-1.54
2023-01-29T04:21:21.670Z,-1.57
2023-01-29T04:23:25.873Z,-1.43
2023-01-29T04:25:36.298Z,-1.42
2023-01-29T04:27:45.824Z,-1.30
2023-01-29T04:30:06.031Z,-1.21
2023-01-29T04:32:10.252Z,-1.24
2023-01-29T04:34:33.203Z,-1.16
2023-01-29T04:36:48.507Z,-1.46
2023-01-29T04:39:12.103Z,-1.36
2023-01-29T04:41:27.656Z,-1.27
2023-01-29T04:43:41.539Z,-1.32
2023-01-29T04:45:45.639Z,-1.33
2023-01-29T04:48:05.763Z,-1.20
2023-01-29T04:50:26.595Z,-1.23
2023-01-29T04:52:46.203Z,-1.21
2023-01-29T04:54:54.242Z,-1.15
2023-01-29T04:57:10.623Z,-1.27
2023-01-29T04:59:17.658Z,-1.18
2023-01-29T05:01:21.488Z,-1.06
2023-01-29T05:03:26.003Z,-1.12
2023-01-29T05:05:28.529Z,-0.96
2023-01-29T05:07:31.383Z,-0.89
2023-01-29T05:09:34.536Z,-0.95
2023-01-29T05:11:36.983Z,-1.04
2023-01-29T05:13:41.910Z,-0.89
2023-01-29T05:15:49.694Z,-0.99
2023-01-29T05:17:51.497Z,-0.91
2023-01-29T05:19:53.196Z,-0.99
2023-01-29T05:21:54.807Z,-1.06
2023-01-29T05:24:15.801Z,-1.06
2023-01-29T05:26:17.530Z,-1.01
2023-01-29T05:28:19.429Z,-1.38
2023-01-29T05:30:20.870Z,-1.03
2023-01-29T05:32:22.504Z,-1.12
2023-01-29T05:34:24.120Z,-1.15
2023-01-29T05:36:25.616Z,-1.21
2023-01-29T05:38:27.146Z,-1.36
2023-01-29T05:40:28.690Z,-1.20
2023-01-29T05:42:30.132Z,-1.17
2023-01-29T05:44:31.930Z,-1.15
2023-01-29T05:46:33.537Z,-1.20
2023-01-29T05:48:35.033Z,-1.13
2023-01-29T05:50:36.761Z,-1.02
2023-01-29T05:52:38.267Z,-1.22
2023-01-29T05:54:39.937Z,-1.04
2023-01-29T05:56:41.465Z,-1.15
2023-01-29T05:58:42.997Z,-1.18
2023-01-29T06:00:44.444Z,-1.25
2023-01-29T06:02:46.071Z,-1.08
2023-01-29T06:04:47.740Z,-1.09
2023-01-29T06:06:49.169Z,-1.19
2023-01-29T06:08:50.804Z,-1.19
2023-01-29T06:10:52.326Z,-1.23
2023-01-29T06:12:53.814Z,-0.99
2023-01-29T06:14:55.527Z,-1.12
2023-01-29T06:16:57.275Z,-1.02
2023-01-29T06:18:58.742Z,-1.15
2023-01-29T06:21:04.993Z,-1.08
2023-01-29T06:23:06.688Z,-1.07
2023-01-29T06:25:08.755Z,-1.92
2023-01-29T06:27:10.350Z,-1.13
2023-01-29T06:29:11.899Z,-1.02
2023-01-29T06:31:33.088Z,-0.85
2023-01-29T06:33:35.001Z,-1.05
2023-01-29T06:35:36.694Z,-1.23
2023-01-29T06:37:38.213Z,-1.07
2023-01-29T06:39:39.843Z,-0.79
2023-01-29T06:41:41.451Z,-0.99
2023-01-29T06:43:46.238Z,-0.98
2023-01-29T06:45:53.676Z,-0.68
2023-01-29T06:47:56.260Z,-0.95
2023-01-29T06:49:57.755Z,-0.89
2023-01-29T06:51:59.382Z,-1.02
2023-01-29T06:54:01.612Z,-1.01
2023-01-29T06:56:03.543Z,-0.83
2023-01-29T06:58:10.011Z,-0.87
2023-01-29T07:00:12.097Z,-0.93
2023-01-29T07:02:13.749Z,-0.95
2023-01-29T07:04:15.395Z,-0.97
2023-01-29T07:06:16.944Z,-0.91
2023-01-29T07:08:18.715Z,-0.92
2023-01-29T07:10:20.673Z,-0.92
2023-01-29T07:12:22.180Z,-0.98
2023-01-29T07:14:23.637Z,-0.86
2023-01-29T07:16:25.362Z,-0.98
2023-01-29T07:18:29.155Z,-0.81
2023-01-29T07:20:31.426Z,-0.95
2023-01-29T07:22:32.982Z,-0.87
2023-01-29T07:24:34.493Z,-1.01
2023-01-29T07:26:35.953Z,-1.04
2023-01-29T07:28:38.755Z,-1.25
2023-01-29T07:30:40.287Z,-1.21
2023-01-29T07:32:41.947Z,-1.26
2023-01-29T07:34:43.462Z,-1.36
2023-01-29T07:36:45.065Z,-1.20
2023-01-29T07:38:49.548Z,-1.21
2023-01-29T07:40:54.330Z,-1.22
2023-01-29T07:42:59.772Z,-1.42
2023-01-29T07:45:01.234Z,-1.32
2023-01-29T07:47:02.928Z,-1.31
2023-01-29T07:49:04.434Z,-1.16
2023-01-29T07:51:06.456Z,-1.24
2023-01-29T07:53:13.477Z,-1.16
2023-01-29T07:55:15.254Z,-1.12
2023-01-29T07:57:16.711Z,-1.02
2023-01-29T07:59:18.254Z,-1.05
2023-01-29T08:01:19.859Z,-1.38
2023-01-29T08:03:21.314Z,-1.18
2023-01-29T08:05:22.970Z,-1.30
2023-01-29T08:07:24.890Z,-1.31
2023-01-29T08:09:26.352Z,-0.91
2023-01-29T08:11:27.945Z,-1.08
2023-01-29T08:13:29.646Z,-1.06
2023-01-29T08:15:31.384Z,-1.20
2023-01-29T08:17:33.022Z,-1.11
2023-01-29T08:19:34.618Z,-0.96
2023-01-29T08:21:36.043Z,-0.63
2023-01-29T08:23:37.651Z,-0.62
2023-01-29T08:25:39.396Z,-0.61
2023-01-29T08:27:41.441Z,-0.53
2023-01-29T08:29:43.097Z,-0.58
2023-01-29T08:31:44.555Z,-0.59
2023-01-29T08:33:46.439Z,-0.58
2023-01-29T08:35:51.731Z,-0.82
2023-01-29T08:37:58.682Z,-0.60
2023-01-29T08:40:00.345Z,-0.85
2023-01-29T08:42:02.124Z,-1.25
2023-01-29T08:44:04.045Z,-0.86
2023-01-29T08:46:06.054Z,-1.00
2023-01-29T08:48:08.878Z,-0.69
2023-01-29T08:50:11.050Z,-0.66
2023-01-29T08:52:12.496Z,-0.50
2023-01-29T08:54:14.126Z,-0.55
2023-01-29T08:56:16.943Z,-0.50
2023-01-29T08:58:18.900Z,-0.41
2023-01-29T09:00:20.851Z,-0.20
2023-01-29T09:02:22.416Z,-0.53
2023-01-29T09:04:23.920Z,-0.48
2023-01-29T09:06:25.429Z,-0.34
2023-01-29T09:08:26.999Z,-0.82
2023-01-29T09:10:28.450Z,-0.57
2023-01-29T09:12:30.197Z,-0.65
2023-01-29T09:14:31.822Z,-0.63
2023-01-29T09:16:33.286Z,-0.58
2023-01-29T09:18:34.826Z,-0.36
2023-01-29T09:20:36.485Z,-0.48
2023-01-29T09:22:38.103Z,-0.37
2023-01-29T09:24:39.853Z,-0.51
2023-01-29T09:26:41.455Z,-0.28
2023-01-29T09:28:42.935Z,-0.21
2023-01-29T09:30:45.546Z,-0.02
2023-01-29T09:32:53.563Z,-0.04
2023-01-29T09:34:55.551Z,-0.10
2023-01-29T09:36:57.238Z,-0.26
2023-01-29T09:38:58.842Z,-0.09
2023-01-29T09:41:08.043Z,-0.15
2023-01-29T09:43:18.960Z,-0.01
2023-01-29T09:45:26.551Z,-0.48
2023-01-29T09:47:30.086Z,-0.35
2023-01-29T09:49:35.347Z,-0.37
2023-01-29T09:52:07.179Z,-0.28
2023-01-29T09:54:33.059Z,-0.28
2023-01-29T09:56:35.412Z,-0.35
2023-01-29T09:58:39.735Z,-0.41
2023-01-29T10:01:04.358Z,-0.56
2023-01-29T10:03:29.906Z,-0.60
2023-01-29T10:06:00.790Z,-0.54
2023-01-29T10:08:31.654Z,-0.41
2023-01-29T10:10:51.043Z,-0.34
2023-01-29T10:12:58.118Z,-0.43
2023-01-29T10:15:11.982Z,-0.40
2023-01-29T10:17:34.530Z,-0.44
2023-01-29T10:19:45.864Z,-0.35
2023-01-29T10:22:35.212Z,-0.32
2023-01-29T10:24:59.363Z,-0.27
2023-01-29T10:27:02.338Z,-0.44
2023-01-29T10:29:07.532Z,-0.26
2023-01-29T10:31:17.651Z,-0.15
2023-01-29T10:33:54.319Z,-0.15
2023-01-29T10:36:01.604Z,-0.21
2023-01-29T10:38:26.214Z,-0.17
2023-01-29T10:40:37.903Z,-0.10
2023-01-29T10:42:47.826Z,-0.19
2023-01-29T10:45:02.934Z,-0.26
2023-01-29T10:47:15.777Z,-0.24
2023-01-29T10:49:53.812Z,-0.37
2023-01-29T10:52:17.385Z,-0.21
2023-01-29T10:54:37.173Z,-0.18
2023-01-29T10:56:52.771Z,-0.20
2023-01-29T10:59:09.345Z,-0.24
2023-01-29T11:01:11.427Z,-0.19
2023-01-29T11:03:26.464Z,-0.21
2023-01-29T11:05:41.051Z,-0.20
2023-01-29T11:07:42.637Z,-0.16
2023-01-29T11:09:52.461Z,-0.04
2023-01-29T11:12:05.903Z,-0.02
2023-01-29T11:14:32.553Z,-0.32
2023-01-29T11:16:43.650Z,-0.25
2023-01-29T11:18:52.949Z,-0.17
2023-01-29T11:21:04.237Z,-0.24
2023-01-29T11:23:07.648Z,-0.31
2023-01-29T11:25:22.455Z,-0.31
2023-01-29T11:27:26.386Z,-0.42
2023-01-29T11:29:46.029Z,-0.61
2023-01-29T11:31:47.927Z,-0.41
2023-01-29T11:33:53.451Z,-0.27
2023-01-29T11:35:55.216Z,-0.22
2023-01-29T11:38:07.208Z,-0.53
2023-01-29T11:40:23.958Z,-0.29
2023-01-29T11:42:31.537Z,-0.20
2023-01-29T11:44:40.129Z,-0.28
2023-01-29T11:46:41.675Z,-0.18
2023-01-29T11:48:49.035Z,-0.19
2023-01-29T11:50:59.809Z,-0.42
2023-01-29T11:53:01.985Z,-0.52
2023-01-29T11:55:20.769Z,-0.47
2023-01-29T11:57:36.472Z,-0.45
2023-01-29T11:59:42.128Z,-0.27
2023-01-29T12:01:43.921Z,-0.38
2023-01-29T12:03:53.816Z,-0.33
2023-01-29T12:05:59.604Z,-0.40
2023-01-29T12:08:02.536Z,-0.33
2023-01-29T12:10:04.343Z,-0.35
2023-01-29T12:12:17.957Z,-0.49
2023-01-29T12:14:26.585Z,-0.21
2023-01-29T12:16:43.325Z,-0.10
2023-01-29T12:18:51.162Z,-0.30
2023-01-29T12:21:01.613Z,-0.40
2023-01-29T12:23:14.340Z,-0.54
2023-01-29T12:25:33.916Z,-0.17
2023-01-29T12:27:48.158Z,-0.24
2023-01-29T12:29:56.400Z,-0.22
2023-01-29T12:32:12.107Z,-0.22
2023-01-29T12:34:27.770Z,-0.30
2023-01-29T12:36:33.415Z,-0.26
2023-01-29T12:38:35.029Z,-0.26
2023-01-29T12:41:04.216Z,-0.34
2023-01-29T12:43:18.519Z,-0.17
2023-01-29T12:45:23.535Z,-0.21
2023-01-29T12:47:31.608Z,-0.14
2023-01-29T12:49:35.738Z,-0.15
2023-01-29T12:51:51.536Z,-0.27
2023-01-29T12:53:59.942Z,-0.05
2023-01-29T12:56:24.135Z,-0.10
2023-01-29T12:58:32.122Z,-0.05
2023-01-29T13:00:37.762Z,0.01
2023-01-29T13:03:02.793Z,-0.12
2023-01-29T13:05:22.226Z,0.20
2023-01-29T13:07:33.176Z,0.13
2023-01-29T13:09:37.446Z,-0.08
2023-01-29T13:12:05.258Z,0.13
2023-01-29T13:14:21.155Z,0.16
2023-01-29T13:16:27.430Z,-0.01
2023-01-29T13:19:19.398Z,0.04
2023-01-29T13:21:27.407Z,0.15
2023-01-29T13:23:36.157Z,-0.08
2023-01-29T13:25:37.799Z,-0.07
2023-01-29T13:27:39.385Z,0.07
2023-01-29T13:29:44.270Z,-0.03
2023-01-29T13:31:48.245Z,-0.03
2023-01-29T13:33:56.771Z,-0.03
2023-01-29T13:35:59.843Z,0.05
2023-01-29T13:38:01.594Z,-0.31
2023-01-29T13:40:06.986Z,-0.02
2023-01-29T13:42:38.398Z,-0.20
2023-01-29T13:44:40.383Z,-0.19
2023-01-29T13:46:42.185Z,-0.25
2023-01-29T13:48:46.946Z,-0.20
2023-01-29T13:50:50.470Z,-0.19
2023-01-29T13:52:58.088Z,-0.22
2023-01-29T13:55:01.901Z,0.04
2023-01-29T13:57:03.572Z,-0.53
2023-01-29T13:59:06.328Z,-0.15
2023-01-29T14:01:07.839Z,-0.11
2023-01-29T14:03:09.376Z,-0.10
2023-01-29T14:05:29.782Z,-0.18
2023-01-29T14:07:50.324Z,-0.21
2023-01-29T14:10:18.048Z,-0.19
2023-01-29T14:12:22.398Z,-0.11
2023-01-29T14:14:49.086Z,-0.24
2023-01-29T14:16:50.823Z,-0.38
2023-01-29T14:18:58.946Z,-0.14
2023-01-29T14:21:02.509Z,-0.04
2023-01-29T14:23:05.043Z,-0.08
2023-01-29T14:25:08.096Z,-0.10
2023-01-29T14:27:21.606Z,-0.14
2023-01-29T14:29:34.255Z,-0.18
2023-01-29T14:31:41.622Z,-0.35
2023-01-29T14:33:43.611Z,-0.33
2023-01-29T14:35:51.093Z,-0.34
2023-01-29T14:37:57.520Z,-0.42
2023-01-29T14:40:16.417Z,-0.31
2023-01-29T14:42:28.515Z,-0.24
2023-01-29T14:44:44.975Z,-0.08
2023-01-29T14:46:46.473Z,-0.10
2023-01-29T14:48:48.096Z,-0.14
2023-01-29T14:50:52.248Z,-0.10
2023-01-29T14:52:59.120Z,-0.12
2023-01-29T14:55:05.545Z,-0.17
2023-01-29T14:57:13.051Z,-0.20
2023-01-29T14:59:27.105Z,0.04
2023-01-29T15:01:38.217Z,-0.21
2023-01-29T15:03:45.717Z,-0.10
2023-01-29T15:05:49.391Z,-0.13
2023-01-29T15:07:59.117Z,-0.16
2023-01-29T15:10:38.505Z,-0.15
2023-01-29T15:13:29.859Z,-0.16
2023-01-29T15:15:52.890Z,-0.17
2023-01-29T15:18:08.963Z,-0.25
2023-01-29T15:20:30.855Z,-0.12
2023-01-29T15:22:43.002Z,-0.13
2023-01-29T15:24:46.513Z,-0.27
2023-01-29T15:26:48.064Z,-0.12
2023-01-29T15:29:03.244Z,-0.05
2023-01-29T15:31:09.176Z,0.02
2023-01-29T15:33:14.044Z,-0.08
2023-01-29T15:35:34.351Z,-0.14
2023-01-29T15:37:37.203Z,-0.05
2023-01-29T15:39:43.931Z,0.00
2023-01-29T15:41:46.507Z,-0.01
2023-01-29T15:43:50.958Z,-0.11
2023-01-29T15:45:55.394Z,-0.03
2023-01-29T15:48:13.152Z,-0.10
2023-01-29T15:50:15.093Z,-0.07
2023-01-29T15:52:25.883Z,-0.07
2023-01-29T15:54:31.404Z,-0.09
2023-01-29T15:56:43.295Z,-0.09
2023-01-29T15:58:48.535Z,-0.08
2023-01-29T16:00:53.092Z,-0.11
2023-01-29T16:02:55.545Z,-0.25
2023-01-29T16:04:57.179Z,-0.08
2023-01-29T16:07:00.575Z,-0.09
2023-01-29T16:09:03.895Z,-0.05
2023-01-29T16:11:07.440Z,-0.27
2023-01-29T16:13:19.966Z,-0.19
2023-01-29T16:15:34.560Z,-0.33
2023-01-29T16:17:41.273Z,-0.26
2023-01-29T16:19:42.987Z,-0.18
2023-01-29T16:21:44.629Z,-0.17
2023-01-29T16:23:50.017Z,-0.13
2023-01-29T16:25:51.996Z,-0.13
2023-01-29T16:27:53.547Z,-0.29
2023-01-29T16:29:55.003Z,0.05
2023-01-29T16:31:58.151Z,-0.10
2023-01-29T16:34:06.528Z,0.08
2023-01-29T16:36:18.184Z,0.17
2023-01-29T16:38:30.364Z,0.04
2023-01-29T16:40:35.226Z,0.01
2023-01-29T16:42:36.734Z,-0.22
2023-01-29T16:44:40.034Z,-0.34
2023-01-29T16:46:49.070Z,-0.06
2023-01-29T16:48:51.154Z,-0.16
2023-01-29T16:51:04.215Z,-0.23
2023-01-29T16:53:32.349Z,-0.06
2023-01-29T16:55:39.617Z,0.04
2023-01-29T16:57:42.170Z,0.00
2023-01-29T16:59:44.257Z,-0.03
2023-01-29T17:01:46.154Z,-0.30
2023-01-29T17:03:57.995Z,-0.14
2023-01-29T17:06:09.183Z,0.02
2023-01-29T17:08:26.965Z,-0.10
2023-01-29T17:10:29.859Z,0.04
2023-01-29T17:12:32.952Z,0.02
2023-01-29T17:14:35.291Z,0.15
2023-01-29T17:16:49.882Z,0.25
2023-01-29T17:18:51.358Z,0.19
2023-01-29T17:20:52.843Z,0.15
2023-01-29T17:22:54.444Z,0.19
2023-01-29T17:24:55.887Z,0.12
2023-01-29T17:26:57.325Z,-0.01
2023-01-29T17:28:59.172Z,-0.07
2023-01-29T17:31:06.728Z,-0.07
2023-01-29T17:33:19.620Z,0.04
2023-01-29T17:35:21.541Z,-0.03
2023-01-29T17:37:23.051Z,-0.04
2023-01-29T17:39:24.501Z,-0.13
2023-01-29T17:41:28.693Z,-0.13
2023-01-29T17:43:30.147Z,0.00
2023-01-29T17:45:31.655Z,-0.27
2023-01-29T17:47:33.304Z,-0.13
2023-01-29T17:49:34.768Z,0.08
2023-01-29T17:51:36.252Z,0.05
2023-01-29T17:53:45.193Z,0.10
2023-01-29T17:55:48.201Z,0.09
2023-01-29T17:57:49.666Z,0.17
2023-01-29T17:59:51.290Z,0.13
2023-01-29T18:01:53.237Z,-0.05
2023-01-29T18:03:54.826Z,0.04
2023-01-29T18:05:56.807Z,-0.25
2023-01-29T18:07:58.371Z,-0.09
2023-01-29T18:09:59.796Z,0.08
2023-01-29T18:12:04.133Z,-0.14
2023-01-29T18:14:14.198Z,-0.20
2023-01-29T18:16:16.198Z,0.12
2023-01-29T18:18:22.744Z,0.05
2023-01-29T18:20:24.765Z,-0.02
2023-01-29T18:22:26.290Z,0.10
2023-01-29T18:24:28.046Z,0.04
2023-01-29T18:26:29.565Z,-0.14
2023-01-29T18:28:31.011Z,-0.10
2023-01-29T18:30:33.570Z,0.08
2023-01-29T18:32:35.172Z,-0.07
2023-01-29T18:34:36.611Z,-0.05
2023-01-29T18:36:38.753Z,-0.03
2023-01-29T18:38:40.252Z,-0.23
2023-01-29T18:40:41.880Z,-0.09
2023-01-29T18:42:44.670Z,0.06
2023-01-29T18:44:46.164Z,0.12
2023-01-29T18:46:47.616Z,0.01
2023-01-29T18:48:49.234Z,0.03
2023-01-29T18:50:51.007Z,0.02
2023-01-29T18:52:53.975Z,0.07
2023-01-29T18:54:55.901Z,-0.01
2023-01-29T18:57:11.615Z,-0.09
2023-01-29T18:59:16.008Z,-0.04
2023-01-29T19:01:18.107Z,-0.05
2023-01-29T19:03:19.647Z,0.14
2023-01-29T19:05:21.104Z,0.13
2023-01-29T19:07:22.787Z,0.07
2023-01-29T19:09:24.312Z,0.20
2023-01-29T19:11:25.763Z,0.13
2023-01-29T19:13:27.560Z,-0.01
2023-01-29T19:15:29.050Z,0.16
2023-01-29T19:17:30.575Z,0.11
2023-01-29T19:19:32.319Z,-0.17
2023-01-29T19:21:33.786Z,0.07
2023-01-29T19:23:35.251Z,0.29
2023-01-29T19:25:38.629Z,0.17
2023-01-29T19:27:40.125Z,0.19
2023-01-29T19:29:41.563Z,0.22
2023-01-29T19:31:43.723Z,0.22
2023-01-29T19:33:45.157Z,0.16
2023-01-29T19:35:46.653Z,0.24
2023-01-29T19:37:48.569Z,0.22
2023-01-29T19:39:50.016Z,0.13
2023-01-29T19:41:51.647Z,0.08
2023-01-29T19:43:53.228Z,0.27
2023-01-29T19:46:00.585Z,0.23
2023-01-29T19:48:02.123Z,0.42
2023-01-29T19:50:03.859Z,0.34
2023-01-29T19:52:05.474Z,0.43
2023-01-29T19:54:07.019Z,0.30
2023-01-29T19:56:11.463Z,0.29
2023-01-29T19:58:12.911Z,0.18
2023-01-29T20:00:14.942Z,0.42
2023-01-29T20:02:16.525Z,0.27
2023-01-29T20:04:18.019Z,0.15
2023-01-29T20:06:22.423Z,0.29
2023-01-29T20:08:24.019Z,0.34
2023-01-29T20:10:25.489Z,0.51
2023-01-29T20:12:27.009Z,0.37
2023-01-29T20:14:28.702Z,0.41
2023-01-29T20:16:30.222Z,0.36
2023-01-29T20:18:32.338Z,0.05
2023-01-29T20:20:33.949Z,0.09
2023-01-29T20:22:35.603Z,0.46
2023-01-29T20:24:37.173Z,0.30
2023-01-29T20:26:38.736Z,0.20
2023-01-29T20:28:40.718Z,0.45
2023-01-29T20:30:43.955Z,0.49
2023-01-29T20:32:45.531Z,0.34
2023-01-29T20:34:46.974Z,0.39
2023-01-29T20:36:48.480Z,0.45
2023-01-29T20:38:50.006Z,0.23
2023-01-29T20:40:51.496Z,0.58
2023-01-29T20:42:53.308Z,0.38
2023-01-29T20:44:54.859Z,0.38
2023-01-29T20:46:56.352Z,0.36
2023-01-29T20:48:57.873Z,0.42
2023-01-29T20:51:07.842Z,0.47
2023-01-29T20:53:11.196Z,0.48
2023-01-29T20:55:13.291Z,0.38
2023-01-29T20:57:15.159Z,0.38
2023-01-29T20:59:16.591Z,0.47
2023-01-29T21:01:20.586Z,0.41
2023-01-29T21:03:22.611Z,0.43
2023-01-29T21:05:24.069Z,0.49
2023-01-29T21:07:25.799Z,0.22
2023-01-29T21:09:27.418Z,0.22
2023-01-29T21:11:28.872Z,0.38
2023-01-29T21:13:30.439Z,0.30
2023-01-29T21:15:32.029Z,0.37
2023-01-29T21:17:33.482Z,-0.06
2023-01-29T21:19:34.929Z,0.22
2023-01-29T21:21:36.612Z,0.40
2023-01-29T21:23:38.055Z,0.21
2023-01-29T21:25:39.499Z,0.38
2023-01-29T21:27:41.079Z,0.42
2023-01-29T21:29:42.503Z,0.46
2023-01-29T21:31:44.307Z,0.29
2023-01-29T21:33:45.898Z,0.39
2023-01-29T21:35:57.205Z,0.33
2023-01-29T21:37:58.844Z,0.29
2023-01-29T21:40:00.374Z,0.23
2023-01-29T21:42:01.815Z,0.36
2023-01-29T21:44:03.336Z,0.57
2023-01-29T21:46:07.056Z,0.46
2023-01-29T21:48:11.536Z,0.46
2023-01-29T21:50:13.114Z,0.48
2023-01-29T21:52:15.543Z,0.52
2023-01-29T21:54:19.683Z,0.41
2023-01-29T21:56:21.231Z,0.48
2023-01-29T21:58:22.829Z,0.60
2023-01-29T22:00:24.305Z,0.63
2023-01-29T22:02:26.639Z,0.49
2023-01-29T22:04:28.870Z,0.69
2023-01-29T22:06:30.330Z,0.65
2023-01-29T22:08:32.018Z,0.70
2023-01-29T22:10:33.719Z,0.55
2023-01-29T22:12:35.186Z,0.54
2023-01-29T22:14:36.638Z,0.68
2023-01-29T22:16:38.283Z,0.71
2023-01-29T22:18:39.769Z,0.71
2023-01-29T22:20:41.317Z,0.65
2023-01-29T22:22:42.941Z,0.83
2023-01-29T22:24:44.463Z,0.63
2023-01-29T22:26:47.811Z,0.30
2023-01-29T22:28:50.077Z,0.48
2023-01-29T22:30:51.538Z,0.46
2023-01-29T22:32:53.151Z,0.57
2023-01-29T22:34:54.843Z,0.70
2023-01-29T22:36:56.358Z,0.61
2023-01-29T22:38:58.310Z,0.62
2023-01-29T22:41:00.997Z,0.66
2023-01-29T22:43:02.419Z,0.70
2023-01-29T22:45:04.124Z,0.66
2023-01-29T22:47:05.741Z,0.72
2023-01-29T22:49:07.192Z,0.73
2023-01-29T22:51:09.982Z,0.56
2023-01-29T22:53:11.640Z,0.69
2023-01-29T22:55:13.457Z,0.51
2023-01-29T22:57:15.881Z,0.64
2023-01-29T22:59:17.455Z,0.56
2023-01-29T23:01:19.696Z,0.57
2023-01-29T23:03:21.343Z,0.64
2023-01-29T23:05:23.055Z,0.63
2023-01-29T23:07:24.632Z,0.69
2023-01-29T23:09:26.261Z,0.53
2023-01-29T23:11:27.956Z,0.58
2023-01-29T23:13:29.443Z,0.64
2023-01-29T23:15:31.061Z,0.48
2023-01-29T23:17:32.948Z,0.60
2023-01-29T23:19:34.407Z,0.56
2023-01-29T23:21:36.088Z,0.51
2023-01-29T23:23:38.008Z,0.48
2023-01-29T23:25:39.441Z,0.48
2023-01-29T23:27:41.274Z,0.41
2023-01-29T23:29:46.736Z,0.58
2023-01-29T23:31:48.475Z,0.44
2023-01-29T23:33:50.406Z,0.57
2023-01-29T23:35:52.109Z,0.72
2023-01-29T23:37:53.551Z,0.51
2023-01-29T23:39:55.130Z,0.73
2023-01-29T23:41:56.815Z,0.70
2023-01-29T23:43:58.242Z,0.64
2023-01-29T23:45:59.763Z,0.79
2023-01-29T23:48:01.304Z,0.85
2023-01-29T23:50:02.770Z,0.70
2023-01-29T23:52:04.488Z,0.63
2023-01-29T23:54:06.493Z,0.60
2023-01-29T23:56:08.205Z,0.65
2023-01-29T23:58:10.137Z,0.35
